Time;durP1;ratioP1;P1;durP2;ratioP2;P2;SDS_P1;SDS_P2;PMS_P1;PMS_P2;Temp;Humidity;BMP_temperature;BMP_pressure;BME280_temperature;BME280_humidity;BME280_pressure;Samples;Min_cycle;Max_cycle;Signal;HPM_P1;HPM_P2
2023/09/04 00:02:17;;;;;;;6.27;3.77;;;;;;;;;;771341;178;914838;-63
2023/09/04 00:04:42;;;;;;;6.62;4.15;;;;;;;;;;758312;180;924613;-63
2023/09/04 00:07:08;;;;;;;9.03;5.10;;;;;;;;;;772190;180;901018;-63
2023/09/04 00:09:34;;;;;;;6.20;4.07;;;;;;;;;;778252;178;861384;-62
2023/09/04 00:12:00;;;;;;;6.70;4.43;;;;;;;;;;769827;180;939745;-60
2023/09/04 00:14:26;;;;;;;8.60;4.62;;;;;;;;;;772320;181;919526;-60
2023/09/04 00:16:51;;;;;;;6.80;4.00;;;;;;;;;;776238;181;918009;-62
2023/09/04 00:19:17;;;;;;;7.03;5.00;;;;;;;;;;773678;181;922265;-64
2023/09/04 00:21:43;;;;;;;5.62;4.25;;;;;;;;;;769439;181;920271;-63
2023/09/04 00:24:09;;;;;;;7.07;4.50;;;;;;;;;;774314;181;919620;-62
2023/09/04 00:26:35;;;;;;;9.77;3.77;;;;;;;;;;768429;181;919412;-60
2023/09/04 00:29:01;;;;;;;6.70;4.40;;;;;;;;;;769504;179;920001;-64
2023/09/04 00:31:27;;;;;;;9.00;3.30;;;;;;;;;;774519;181;917919;-64
2023/09/04 00:33:53;;;;;;;6.30;3.37;;;;;;;;;;780426;180;919562;-60
2023/09/04 00:36:19;;;;;;;8.13;3.27;;;;;;;;;;772612;180;919786;-60
2023/09/04 00:38:44;;;;;;;5.50;3.10;;;;;;;;;;772378;181;918622;-59
2023/09/04 00:41:10;;;;;;;6.40;3.60;;;;;;;;;;780525;180;919890;-65
2023/09/04 00:43:36;;;;;;;9.80;4.43;;;;;;;;;;772480;178;918758;-60
2023/09/04 00:46:03;;;;;;;7.22;4.37;;;;;;;;;;773112;177;919632;-60
2023/09/04 00:48:28;;;;;;;9.00;3.67;;;;;;;;;;775145;178;816365;-58
2023/09/04 00:50:54;;;;;;;5.35;4.22;;;;;;;;;;772173;180;916800;-64
2023/09/04 00:53:19;;;;;;;8.57;4.63;;;;;;;;;;775805;177;916793;-60
2023/09/04 00:55:45;;;;;;;7.07;3.97;;;;;;;;;;773947;179;879620;-65
2023/09/04 00:58:11;;;;;;;7.70;4.87;;;;;;;;;;778510;180;916952;-61
2023/09/04 01:00:37;;;;;;;8.87;4.37;;;;;;;;;;770282;180;923261;-60
2023/09/04 01:03:03;;;;;;;7.10;4.93;;;;;;;;;;774879;180;918096;-64
2023/09/04 01:05:31;;;;;;;7.77;4.93;;;;;;;;;;779282;180;919123;-64
2023/09/04 01:07:55;;;;;;;7.33;5.10;;;;;;;;;;773086;181;918012;-60
2023/09/04 01:10:21;;;;;;;6.87;5.57;;;;;;;;;;770245;177;922019;-61
2023/09/04 01:12:49;;;;;;;7.20;5.53;;;;;;;;;;776767;178;920412;-61
2023/09/04 01:15:15;;;;;;;6.93;4.73;;;;;;;;;;770372;177;918624;-61
2023/09/04 01:17:41;;;;;;;5.80;4.40;;;;;;;;;;773923;180;918207;-60
2023/09/04 01:20:12;;;;;;;6.40;5.60;;;;;;;;;;772701;180;914347;-63
2023/09/04 01:22:38;;;;;;;9.27;4.97;;;;;;;;;;778466;179;917784;-60
2023/09/04 01:25:04;;;;;;;6.60;4.97;;;;;;;;;;771629;178;880052;-59
2023/09/04 01:27:30;;;;;;;6.27;4.50;;;;;;;;;;768037;181;901839;-59
2023/09/04 01:29:58;;;;;;;10.60;5.40;;;;;;;;;;776117;181;878092;-60
2023/09/04 01:32:26;;;;;;;16.17;5.03;;;;;;;;;;767357;181;934174;-63
2023/09/04 01:34:51;;;;;;;7.30;4.80;;;;;;;;;;768741;181;927145;-60
2023/09/04 01:37:16;;;;;;;7.73;5.00;;;;;;;;;;768859;180;919605;-61
2023/09/04 01:39:42;;;;;;;8.50;5.10;;;;;;;;;;773147;181;917711;-58
2023/09/04 01:42:08;;;;;;;6.03;4.90;;;;;;;;;;768889;181;919959;-60
2023/09/04 01:44:34;;;;;;;7.40;5.07;;;;;;;;;;772990;181;919524;-60
2023/09/04 01:46:59;;;;;;;5.90;4.63;;;;;;;;;;778646;180;918476;-63
2023/09/04 01:49:25;;;;;;;8.37;7.50;;;;;;;;;;770762;180;919019;-60
2023/09/04 01:51:53;;;;;;;5.33;3.90;;;;;;;;;;775776;180;919613;-64
2023/09/04 01:54:17;;;;;;;5.70;4.70;;;;;;;;;;773765;181;818053;-61
2023/09/04 01:56:43;;;;;;;7.13;5.40;;;;;;;;;;773152;181;918114;-63
2023/09/04 01:59:09;;;;;;;9.47;4.83;;;;;;;;;;774028;178;879356;-64
2023/09/04 02:01:35;;;;;;;6.50;4.60;;;;;;;;;;773826;180;715701;-64
2023/09/04 02:04:01;;;;;;;5.27;4.40;;;;;;;;;;781445;180;887746;-64
2023/09/04 02:06:27;;;;;;;6.70;4.90;;;;;;;;;;769735;181;919685;-60
2023/09/04 02:08:52;;;;;;;7.90;4.13;;;;;;;;;;774898;177;919815;-61
2023/09/04 02:11:18;;;;;;;8.83;4.50;;;;;;;;;;767981;182;918789;-65
2023/09/04 02:13:45;;;;;;;5.97;4.37;;;;;;;;;;773461;179;918454;-65
2023/09/04 02:16:11;;;;;;;5.90;4.03;;;;;;;;;;767911;181;919859;-65
2023/09/04 02:18:38;;;;;;;6.30;4.80;;;;;;;;;;776763;180;922207;-65
2023/09/04 02:21:03;;;;;;;5.00;3.73;;;;;;;;;;773716;178;918518;-64
2023/09/04 02:23:28;;;;;;;5.93;3.53;;;;;;;;;;772887;180;918606;-62
2023/09/04 02:25:54;;;;;;;4.70;4.20;;;;;;;;;;772212;180;918555;-65
2023/09/04 02:28:20;;;;;;;8.13;4.70;;;;;;;;;;772524;179;920334;-65
2023/09/04 02:30:46;;;;;;;6.43;4.50;;;;;;;;;;773671;180;919644;-65
2023/09/04 02:33:11;;;;;;;5.60;4.00;;;;;;;;;;771666;177;919198;-64
2023/09/04 02:35:37;;;;;;;6.00;4.03;;;;;;;;;;775238;181;916927;-61
2023/09/04 02:38:03;;;;;;;6.20;3.90;;;;;;;;;;765020;181;918767;-64
2023/09/04 02:40:29;;;;;;;4.60;3.58;;;;;;;;;;771401;180;919584;-61
2023/09/04 02:42:55;;;;;;;8.50;4.90;;;;;;;;;;776131;180;919504;-64
2023/09/04 02:45:21;;;;;;;5.93;4.00;;;;;;;;;;770504;178;921090;-65
2023/09/04 02:47:47;;;;;;;5.77;4.47;;;;;;;;;;773817;180;882229;-64
2023/09/04 02:50:13;;;;;;;6.57;3.67;;;;;;;;;;780325;180;816735;-64
2023/09/04 02:52:39;;;;;;;7.83;3.80;;;;;;;;;;767274;181;916894;-65
2023/09/04 02:55:05;;;;;;;5.13;3.13;;;;;;;;;;763677;181;919012;-65
2023/09/04 02:57:31;;;;;;;5.27;3.73;;;;;;;;;;766677;177;915518;-65
2023/09/04 02:59:57;;;;;;;4.30;3.13;;;;;;;;;;780305;180;817079;-61
2023/09/04 03:02:22;;;;;;;4.93;3.97;;;;;;;;;;772164;179;917190;-60
2023/09/04 03:04:56;;;;;;;11.90;3.50;;;;;;;;;;772531;177;923697;-61
2023/09/04 03:07:22;;;;;;;5.40;3.10;;;;;;;;;;774607;180;906052;-61
2023/09/04 03:09:48;;;;;;;6.53;3.13;;;;;;;;;;774264;178;920993;-65
2023/09/04 03:12:14;;;;;;;7.50;4.07;;;;;;;;;;765173;180;917938;-60
2023/09/04 03:14:39;;;;;;;11.33;3.10;;;;;;;;;;777969;176;929690;-61
2023/09/04 03:17:05;;;;;;;6.57;3.33;;;;;;;;;;778808;178;918493;-61
2023/09/04 03:19:31;;;;;;;6.53;3.30;;;;;;;;;;773716;177;933243;-61
2023/09/04 03:21:57;;;;;;;8.77;4.03;;;;;;;;;;774096;178;933972;-61
2023/09/04 03:24:23;;;;;;;7.67;4.23;;;;;;;;;;782998;180;621561;-61
2023/09/04 03:26:49;;;;;;;5.80;3.37;;;;;;;;;;775858;177;912404;-61
2023/09/04 03:29:14;;;;;;;7.27;4.20;;;;;;;;;;776051;180;908259;-66
2023/09/04 03:31:41;;;;;;;7.57;4.10;;;;;;;;;;781598;180;816314;-61
2023/09/04 03:34:06;;;;;;;9.50;3.67;;;;;;;;;;776254;181;918110;-62
2023/09/04 03:36:32;;;;;;;7.23;3.67;;;;;;;;;;775605;180;922424;-61
2023/09/04 03:38:58;;;;;;;9.30;3.80;;;;;;;;;;772120;180;920028;-61
2023/09/04 03:41:24;;;;;;;6.00;4.07;;;;;;;;;;776067;180;808886;-66
2023/09/04 03:43:49;;;;;;;5.67;4.03;;;;;;;;;;771171;179;920067;-61
2023/09/04 03:46:15;;;;;;;6.90;3.80;;;;;;;;;;771814;180;920785;-61
2023/09/04 03:48:41;;;;;;;9.80;4.73;;;;;;;;;;772566;180;922168;-61
2023/09/04 03:51:07;;;;;;;8.00;3.67;;;;;;;;;;772792;179;915437;-62
2023/09/04 03:53:33;;;;;;;9.60;3.73;;;;;;;;;;774001;180;897225;-60
2023/09/04 03:56:03;;;;;;;19.67;3.70;;;;;;;;;;778010;178;855370;-65
2023/09/04 03:58:29;;;;;;;6.87;4.00;;;;;;;;;;771512;181;918863;-65
2023/09/04 04:00:55;;;;;;;4.20;3.40;;;;;;;;;;773221;178;921711;-65
2023/09/04 04:03:20;;;;;;;7.30;3.70;;;;;;;;;;759714;183;919208;-61
2023/09/04 04:05:46;;;;;;;4.90;3.57;;;;;;;;;;770109;181;919370;-66
2023/09/04 04:08:12;;;;;;;5.23;3.90;;;;;;;;;;773151;178;856966;-61
2023/09/04 04:10:39;;;;;;;7.03;3.63;;;;;;;;;;774375;180;819968;-61
2023/09/04 04:13:04;;;;;;;8.87;4.60;;;;;;;;;;781611;180;633529;-64
2023/09/04 04:15:30;;;;;;;5.67;4.27;;;;;;;;;;777035;180;625703;-65
2023/09/04 04:17:56;;;;;;;6.60;3.70;;;;;;;;;;774394;180;628072;-66
2023/09/04 04:20:22;;;;;;;4.53;3.73;;;;;;;;;;782378;177;626436;-65
2023/09/04 04:22:47;;;;;;;5.93;4.10;;;;;;;;;;778018;180;629146;-65
2023/09/04 04:25:13;;;;;;;8.20;4.27;;;;;;;;;;774685;180;919791;-66
2023/09/04 04:27:39;;;;;;;4.70;3.67;;;;;;;;;;777192;179;917720;-67
2023/09/04 04:30:05;;;;;;;7.33;3.57;;;;;;;;;;771165;181;916624;-65
2023/09/04 04:32:32;;;;;;;7.47;3.90;;;;;;;;;;768296;181;633312;-66
2023/09/04 04:34:57;;;;;;;5.70;4.03;;;;;;;;;;776250;179;628678;-64
2023/09/04 04:37:23;;;;;;;6.57;4.10;;;;;;;;;;782635;180;627686;-62
2023/09/04 04:39:49;;;;;;;7.50;4.60;;;;;;;;;;776857;178;635208;-64
2023/09/04 04:42:16;;;;;;;9.63;4.40;;;;;;;;;;777372;180;640040;-66
2023/09/04 04:44:41;;;;;;;5.43;3.90;;;;;;;;;;778084;180;913961;-61
2023/09/04 04:47:07;;;;;;;5.47;4.07;;;;;;;;;;773736;177;919144;-66
2023/09/04 04:49:33;;;;;;;5.80;4.13;;;;;;;;;;773749;179;1017551;-65
2023/09/04 04:51:59;;;;;;;6.93;3.90;;;;;;;;;;770984;181;919445;-64
2023/09/04 04:54:25;;;;;;;9.23;4.40;;;;;;;;;;767164;181;918648;-60
2023/09/04 04:56:51;;;;;;;6.90;5.07;;;;;;;;;;771575;177;917489;-60
2023/09/04 04:59:17;;;;;;;6.55;3.62;;;;;;;;;;775811;180;796645;-61
2023/09/04 05:01:42;;;;;;;5.00;4.10;;;;;;;;;;776880;180;919253;-61
2023/09/04 05:04:08;;;;;;;7.63;4.17;;;;;;;;;;775496;180;820623;-65
2023/09/04 05:06:34;;;;;;;11.20;4.93;;;;;;;;;;758650;183;917412;-65
2023/09/04 05:09:00;;;;;;;8.38;4.47;;;;;;;;;;767703;181;916123;-64
2023/09/04 05:11:27;;;;;;;5.20;4.33;;;;;;;;;;775298;180;919642;-65
2023/09/04 05:13:53;;;;;;;7.33;4.33;;;;;;;;;;773881;180;917120;-65
2023/09/04 05:16:21;;;;;;;5.45;4.37;;;;;;;;;;775922;179;919515;-65
2023/09/04 05:18:47;;;;;;;8.37;4.97;;;;;;;;;;770716;181;919081;-62
2023/09/04 05:21:13;;;;;;;7.23;4.70;;;;;;;;;;772559;181;920221;-65
2023/09/04 05:23:39;;;;;;;8.40;4.27;;;;;;;;;;774548;180;818961;-65
2023/09/04 05:26:04;;;;;;;6.67;4.30;;;;;;;;;;778699;179;897090;-61
2023/09/04 05:28:30;;;;;;;9.52;5.72;;;;;;;;;;776475;178;918943;-61
2023/09/04 05:30:56;;;;;;;5.53;4.13;;;;;;;;;;771529;180;919257;-61
2023/09/04 05:33:22;;;;;;;5.40;4.15;;;;;;;;;;777497;180;921640;-65
2023/09/04 05:35:56;;;;;;;8.73;4.80;;;;;;;;;;766823;180;881247;-66
2023/09/04 05:38:22;;;;;;;5.63;3.60;;;;;;;;;;770519;178;895179;-59
2023/09/04 05:40:49;;;;;;;5.50;3.80;;;;;;;;;;776019;179;915741;-62
2023/09/04 05:43:15;;;;;;;4.80;3.83;;;;;;;;;;767849;181;919019;-62
2023/09/04 05:45:41;;;;;;;7.13;3.97;;;;;;;;;;773340;177;910299;-66
2023/09/04 05:48:08;;;;;;;8.40;3.87;;;;;;;;;;773112;181;917464;-65
2023/09/04 05:50:35;;;;;;;8.53;3.90;;;;;;;;;;777407;177;912879;-65
2023/09/04 05:53:01;;;;;;;11.70;4.37;;;;;;;;;;775528;181;819230;-66
2023/09/04 05:55:27;;;;;;;6.10;4.12;;;;;;;;;;773654;180;914983;-61
2023/09/04 05:57:54;;;;;;;5.90;3.60;;;;;;;;;;771664;180;938014;-65
2023/09/04 06:00:21;;;;;;;7.33;3.87;;;;;;;;;;776871;177;818053;-66
2023/09/04 06:02:46;;;;;;;6.77;3.50;;;;;;;;;;760867;179;920989;-65
2023/09/04 06:05:11;;;;;;;7.63;3.53;;;;;;;;;;758919;181;912714;-65
2023/09/04 06:07:37;;;;;;;5.80;3.80;;;;;;;;;;778239;180;923110;-65
2023/09/04 06:10:03;;;;;;;5.73;2.90;;;;;;;;;;773937;179;922604;-65
2023/09/04 06:12:29;;;;;;;10.97;3.10;;;;;;;;;;773586;180;920737;-61
2023/09/04 06:14:55;;;;;;;5.97;2.93;;;;;;;;;;780013;180;818023;-66
2023/09/04 06:17:21;;;;;;;5.70;3.43;;;;;;;;;;774404;180;847992;-61
2023/09/04 06:19:47;;;;;;;6.73;3.10;;;;;;;;;;774872;180;918805;-64
2023/09/04 06:22:13;;;;;;;4.93;2.90;;;;;;;;;;765776;181;939903;-60
2023/09/04 06:24:39;;;;;;;10.57;3.30;;;;;;;;;;775633;181;899871;-60
2023/09/04 06:27:05;;;;;;;4.20;2.53;;;;;;;;;;769354;178;904971;-61
2023/09/04 06:29:31;;;;;;;3.57;2.93;;;;;;;;;;764145;182;920474;-61
2023/09/04 06:31:57;;;;;;;5.10;3.23;;;;;;;;;;773831;181;919960;-61
2023/09/04 06:34:23;;;;;;;4.30;3.17;;;;;;;;;;772313;177;919763;-61
2023/09/04 06:36:49;;;;;;;4.20;2.70;;;;;;;;;;761376;182;920436;-60
2023/09/04 06:39:15;;;;;;;11.13;3.13;;;;;;;;;;777783;177;916693;-60
2023/09/04 06:41:41;;;;;;;6.70;3.30;;;;;;;;;;772340;179;818593;-62
2023/09/04 06:44:06;;;;;;;5.12;2.62;;;;;;;;;;777291;179;920398;-66
2023/09/04 06:46:32;;;;;;;4.97;3.20;;;;;;;;;;774720;181;917344;-61
2023/09/04 06:48:58;;;;;;;4.90;2.87;;;;;;;;;;773195;180;887032;-65
2023/09/04 06:51:24;;;;;;;5.50;2.50;;;;;;;;;;774497;179;916501;-64
2023/09/04 06:53:50;;;;;;;6.87;2.80;;;;;;;;;;770411;179;919067;-64
2023/09/04 06:56:16;;;;;;;5.93;2.70;;;;;;;;;;778926;181;941461;-65
2023/09/04 06:58:41;;;;;;;4.90;2.70;;;;;;;;;;771128;180;918608;-65
2023/09/04 07:01:07;;;;;;;4.33;2.93;;;;;;;;;;775125;180;919550;-64
2023/09/04 07:03:33;;;;;;;7.63;3.30;;;;;;;;;;776534;178;919305;-60
2023/09/04 07:05:59;;;;;;;5.23;2.40;;;;;;;;;;770438;181;630861;-60
2023/09/04 07:08:25;;;;;;;6.50;2.70;;;;;;;;;;772846;177;916005;-64
2023/09/04 07:10:51;;;;;;;8.60;3.70;;;;;;;;;;777352;181;919921;-63
2023/09/04 07:13:16;;;;;;;5.00;2.70;;;;;;;;;;775976;178;919920;-61
2023/09/04 07:15:43;;;;;;;9.20;2.87;;;;;;;;;;775907;180;819185;-64
2023/09/04 07:18:08;;;;;;;10.07;3.23;;;;;;;;;;765861;181;918235;-64
2023/09/04 07:20:34;;;;;;;7.53;2.70;;;;;;;;;;778660;180;918992;-64
2023/09/04 07:23:00;;;;;;;7.00;2.40;;;;;;;;;;771034;180;906302;-60
2023/09/04 07:25:26;;;;;;;4.93;2.10;;;;;;;;;;774326;177;919536;-63
2023/09/04 07:27:51;;;;;;;7.43;2.97;;;;;;;;;;779147;180;818975;-61
2023/09/04 07:30:17;;;;;;;5.50;3.20;;;;;;;;;;774141;178;919042;-62
2023/09/04 07:32:43;;;;;;;6.37;2.83;;;;;;;;;;770575;180;819954;-65
2023/09/04 07:35:09;;;;;;;5.00;2.87;;;;;;;;;;776085;177;917054;-66
2023/09/04 07:37:35;;;;;;;10.57;2.53;;;;;;;;;;776282;180;919390;-60
2023/09/04 07:40:04;;;;;;;6.70;2.70;;;;;;;;;;774268;177;918924;-60
2023/09/04 07:42:27;;;;;;;5.93;3.23;;;;;;;;;;773245;179;920144;-63
2023/09/04 07:44:53;;;;;;;5.73;3.13;;;;;;;;;;768936;181;924074;-65
2023/09/04 07:47:19;;;;;;;5.27;2.60;;;;;;;;;;770060;180;919665;-63
2023/09/04 07:49:45;;;;;;;6.90;2.20;;;;;;;;;;758408;184;919836;-63
2023/09/04 07:52:10;;;;;;;4.47;2.77;;;;;;;;;;772898;178;937702;-59
2023/09/04 07:54:36;;;;;;;6.63;2.80;;;;;;;;;;773776;179;920227;-65
2023/09/04 07:57:04;;;;;;;3.03;2.17;;;;;;;;;;773641;178;919654;-62
2023/09/04 07:59:28;;;;;;;7.87;3.03;;;;;;;;;;778132;177;918558;-61
2023/09/04 08:01:54;;;;;;;6.50;3.10;;;;;;;;;;764235;182;920419;-60
2023/09/04 08:04:20;;;;;;;3.80;2.67;;;;;;;;;;770176;180;919550;-60
2023/09/04 08:06:45;;;;;;;6.43;2.67;;;;;;;;;;780183;178;921358;-59
2023/09/04 08:09:11;;;;;;;4.70;3.40;;;;;;;;;;773864;177;915040;-64
2023/09/04 08:11:37;;;;;;;4.37;2.37;;;;;;;;;;773460;180;816950;-60
2023/09/04 08:14:03;;;;;;;6.63;2.90;;;;;;;;;;762337;183;910536;-59
2023/09/04 08:16:29;;;;;;;5.60;3.07;;;;;;;;;;774828;180;918327;-63
2023/09/04 08:18:55;;;;;;;11.07;3.30;;;;;;;;;;774142;180;915259;-63
2023/09/04 08:21:21;;;;;;;5.97;2.77;;;;;;;;;;775417;180;916098;-60
2023/09/04 08:23:46;;;;;;;5.97;3.60;;;;;;;;;;779852;178;816770;-58
2023/09/04 08:26:12;;;;;;;4.60;2.73;;;;;;;;;;776541;177;917162;-62
2023/09/04 08:28:39;;;;;;;8.70;3.63;;;;;;;;;;773718;177;919653;-63
2023/09/04 08:31:04;;;;;;;9.13;4.00;;;;;;;;;;778056;178;915904;-64
2023/09/04 08:33:30;;;;;;;5.70;3.30;;;;;;;;;;765943;179;821658;-65
2023/09/04 08:35:56;;;;;;;7.80;2.50;;;;;;;;;;763761;181;918729;-64
2023/09/04 08:38:21;;;;;;;5.07;2.90;;;;;;;;;;772672;178;916642;-58
2023/09/04 08:40:47;;;;;;;9.97;3.23;;;;;;;;;;764069;181;922514;-57
2023/09/04 08:43:13;;;;;;;9.57;3.77;;;;;;;;;;766360;181;890680;-63
2023/09/04 08:45:40;;;;;;;5.70;3.00;;;;;;;;;;773113;180;918211;-63
2023/09/04 08:48:06;;;;;;;6.07;3.03;;;;;;;;;;781865;177;624305;-59
2023/09/04 08:50:32;;;;;;;6.77;3.20;;;;;;;;;;774155;180;817129;-64
2023/09/04 08:52:58;;;;;;;6.12;2.80;;;;;;;;;;772722;179;915469;-64
2023/09/04 08:55:23;;;;;;;5.20;2.23;;;;;;;;;;779064;179;915187;-60
2023/09/04 08:57:49;;;;;;;7.00;3.07;;;;;;;;;;769086;180;920754;-58
2023/09/04 09:00:16;;;;;;;5.13;2.70;;;;;;;;;;771594;177;919796;-59
2023/09/04 09:02:42;;;;;;;4.47;3.07;;;;;;;;;;774802;180;816133;-59
2023/09/04 09:05:07;;;;;;;4.37;2.90;;;;;;;;;;771871;180;911092;-63
2023/09/04 09:07:33;;;;;;;4.67;2.63;;;;;;;;;;773679;181;919083;-62
2023/09/04 09:09:59;;;;;;;8.80;3.03;;;;;;;;;;771650;177;919407;-65
2023/09/04 09:12:25;;;;;;;4.67;3.37;;;;;;;;;;765077;181;816010;-63
2023/09/04 09:14:51;;;;;;;5.60;3.10;;;;;;;;;;772922;181;918573;-59
2023/09/04 09:17:18;;;;;;;4.67;3.00;;;;;;;;;;773104;181;919262;-59
2023/09/04 09:19:42;;;;;;;7.00;3.70;;;;;;;;;;774056;177;915320;-61
2023/09/04 09:22:08;;;;;;;6.47;2.47;;;;;;;;;;772506;177;919207;-56
2023/09/04 09:24:34;;;;;;;6.90;3.63;;;;;;;;;;769401;180;919347;-61
2023/09/04 09:27:00;;;;;;;5.90;3.50;;;;;;;;;;767311;181;917768;-62
2023/09/04 09:29:26;;;;;;;5.40;4.00;;;;;;;;;;766747;181;842677;-59
2023/09/04 09:31:51;;;;;;;4.80;3.20;;;;;;;;;;772547;178;922071;-58
2023/09/04 09:34:18;;;;;;;3.93;2.70;;;;;;;;;;773666;178;921086;-59
2023/09/04 09:36:43;;;;;;;6.10;2.87;;;;;;;;;;773647;181;917480;-59
2023/09/04 09:39:09;;;;;;;9.50;3.20;;;;;;;;;;768983;179;918552;-62
2023/09/04 09:41:35;;;;;;;4.20;2.97;;;;;;;;;;769911;178;905335;-63
2023/09/04 09:44:03;;;;;;;8.60;3.87;;;;;;;;;;780329;180;918532;-62
2023/09/04 09:46:29;;;;;;;5.80;3.00;;;;;;;;;;770121;180;920025;-58
2023/09/04 09:48:54;;;;;;;11.73;3.63;;;;;;;;;;774664;180;910243;-58
2023/09/04 09:51:20;;;;;;;4.90;3.10;;;;;;;;;;774694;177;913185;-59
2023/09/04 09:53:46;;;;;;;6.57;3.47;;;;;;;;;;766399;181;916573;-58
2023/09/04 09:56:12;;;;;;;9.37;3.10;;;;;;;;;;767527;180;919293;-62
2023/09/04 09:58:38;;;;;;;3.50;2.77;;;;;;;;;;772283;180;918816;-61
2023/09/04 10:01:04;;;;;;;6.43;3.33;;;;;;;;;;764967;182;918433;-62
2023/09/04 10:03:30;;;;;;;4.83;2.27;;;;;;;;;;756392;184;919118;-62
2023/09/04 10:05:56;;;;;;;5.67;2.67;;;;;;;;;;768305;179;918286;-66
2023/09/04 10:08:22;;;;;;;4.57;2.33;;;;;;;;;;779233;180;817396;-63
2023/09/04 10:10:48;;;;;;;5.50;3.30;;;;;;;;;;771850;177;1022014;-59
2023/09/04 10:13:13;;;;;;;4.70;2.90;;;;;;;;;;772599;178;924559;-61
2023/09/04 10:15:39;;;;;;;7.20;3.47;;;;;;;;;;779167;177;888798;-64
2023/09/04 10:18:05;;;;;;;5.13;2.57;;;;;;;;;;766216;180;922290;-59
2023/09/04 10:20:31;;;;;;;3.95;2.40;;;;;;;;;;777037;178;804370;-59
2023/09/04 10:22:57;;;;;;;5.10;2.40;;;;;;;;;;775944;180;918054;-65
2023/09/04 10:25:23;;;;;;;8.40;3.13;;;;;;;;;;773559;180;919356;-60
2023/09/04 10:27:50;;;;;;;4.53;2.57;;;;;;;;;;774935;177;826747;-60
2023/09/04 10:30:16;;;;;;;9.70;3.47;;;;;;;;;;774766;180;832898;-65
2023/09/04 10:32:42;;;;;;;7.87;3.67;;;;;;;;;;775777;180;860906;-63
2023/09/04 10:35:09;;;;;;;5.50;2.90;;;;;;;;;;774054;178;917820;-59
2023/09/04 10:37:34;;;;;;;6.07;2.97;;;;;;;;;;773104;180;840579;-59
2023/09/04 10:39:59;;;;;;;5.70;3.20;;;;;;;;;;779569;178;915922;-64
2023/09/04 10:42:27;;;;;;;4.13;2.30;;;;;;;;;;767274;180;919355;-62
2023/09/04 10:44:51;;;;;;;4.03;2.60;;;;;;;;;;772274;180;940818;-63
2023/09/04 10:47:17;;;;;;;4.43;2.60;;;;;;;;;;779445;180;936508;-64
2023/09/04 10:49:43;;;;;;;4.13;2.70;;;;;;;;;;768760;180;917014;-59
2023/09/04 10:52:09;;;;;;;4.57;2.53;;;;;;;;;;770763;179;902124;-63
2023/09/04 10:54:34;;;;;;;6.20;3.17;;;;;;;;;;775974;180;911498;-65
2023/09/04 10:57:02;;;;;;;6.27;4.13;;;;;;;;;;775175;180;922134;-62
2023/09/04 10:59:27;;;;;;;5.77;2.80;;;;;;;;;;769040;180;921124;-63
2023/09/04 11:01:53;;;;;;;8.90;2.70;;;;;;;;;;772803;180;919355;-59
2023/09/04 11:04:24;;;;;;;5.35;2.40;;;;;;;;;;774466;181;897112;-65
2023/09/04 11:06:50;;;;;;;5.73;2.77;;;;;;;;;;772056;179;929760;-63
2023/09/04 11:09:17;;;;;;;6.80;2.33;;;;;;;;;;772056;179;910573;-64
2023/09/04 11:11:42;;;;;;;4.73;2.93;;;;;;;;;;765631;179;919534;-64
2023/09/04 11:14:11;;;;;;;6.13;2.50;;;;;;;;;;765037;182;920825;-63
2023/09/04 11:16:37;;;;;;;4.80;2.50;;;;;;;;;;767556;179;917731;-59
2023/09/04 11:19:03;;;;;;;4.10;2.20;;;;;;;;;;765573;180;918952;-60
2023/09/04 11:21:29;;;;;;;5.50;2.70;;;;;;;;;;769555;181;922669;-59
2023/09/04 11:23:55;;;;;;;7.90;2.73;;;;;;;;;;774021;177;920410;-64
2023/09/04 11:26:21;;;;;;;4.00;2.63;;;;;;;;;;775879;177;817105;-64
2023/09/04 11:28:46;;;;;;;4.93;3.40;;;;;;;;;;771645;180;920202;-64
2023/09/04 11:31:12;;;;;;;8.33;2.93;;;;;;;;;;772492;180;920578;-63
2023/09/04 11:33:38;;;;;;;11.80;4.10;;;;;;;;;;770818;180;919329;-59
2023/09/04 11:36:04;;;;;;;5.37;2.43;;;;;;;;;;769831;179;918595;-63
2023/09/04 11:38:30;;;;;;;5.43;2.97;;;;;;;;;;775475;180;918955;-64
2023/09/04 11:40:56;;;;;;;5.80;3.40;;;;;;;;;;767606;181;919644;-59
2023/09/04 11:43:23;;;;;;;5.87;2.67;;;;;;;;;;769463;180;921407;-65
2023/09/04 11:45:48;;;;;;;5.37;2.40;;;;;;;;;;777894;180;918481;-64
2023/09/04 11:48:14;;;;;;;5.47;2.90;;;;;;;;;;774395;181;827625;-60
2023/09/04 11:50:40;;;;;;;6.27;3.40;;;;;;;;;;774053;180;819248;-66
2023/09/04 11:53:06;;;;;;;6.20;2.90;;;;;;;;;;778904;178;913617;-60
2023/09/04 11:55:32;;;;;;;8.87;3.50;;;;;;;;;;771943;180;915669;-64
2023/09/04 11:57:58;;;;;;;5.00;2.90;;;;;;;;;;772401;182;816353;-65
2023/09/04 12:00:24;;;;;;;7.30;3.30;;;;;;;;;;770667;180;918688;-61
2023/09/04 12:02:49;;;;;;;6.13;3.87;;;;;;;;;;768655;180;916290;-61
2023/09/04 12:05:17;;;;;;;5.90;3.17;;;;;;;;;;774196;180;843052;-61
2023/09/04 12:07:41;;;;;;;5.10;3.70;;;;;;;;;;771351;178;863089;-60
2023/09/04 12:10:07;;;;;;;4.50;3.63;;;;;;;;;;780107;180;874037;-61
2023/09/04 12:12:33;;;;;;;8.10;3.23;;;;;;;;;;775389;181;919222;-60
2023/09/04 12:15:00;;;;;;;6.87;3.97;;;;;;;;;;770102;181;919507;-64
2023/09/04 12:17:25;;;;;;;6.50;3.47;;;;;;;;;;774735;181;920077;-59
2023/09/04 12:19:51;;;;;;;4.50;3.40;;;;;;;;;;769352;178;919601;-63
2023/09/04 12:22:17;;;;;;;10.33;3.37;;;;;;;;;;774736;178;818780;-59
2023/09/04 12:24:49;;;;;;;5.65;4.00;;;;;;;;;;774804;179;917776;-59
2023/09/04 12:27:14;;;;;;;5.20;3.80;;;;;;;;;;775017;178;929397;-59
2023/09/04 12:29:40;;;;;;;6.87;4.40;;;;;;;;;;771280;181;920102;-62
2023/09/04 12:32:11;;;;;;;8.13;4.30;;;;;;;;;;769805;180;920957;-63
2023/09/04 12:34:32;;;;;;;6.57;4.20;;;;;;;;;;776902;177;919661;-62
2023/09/04 12:36:58;;;;;;;11.17;4.30;;;;;;;;;;773410;181;918723;-62
2023/09/04 12:39:24;;;;;;;6.50;4.07;;;;;;;;;;770606;180;919660;-58
2023/09/04 12:41:56;;;;;;;7.70;3.47;;;;;;;;;;776219;178;615793;-58
2023/09/04 12:44:21;;;;;;;6.83;4.53;;;;;;;;;;775443;180;626714;-61
2023/09/04 12:46:47;;;;;;;8.30;4.60;;;;;;;;;;775220;176;921055;-61
2023/09/04 12:49:13;;;;;;;9.03;4.67;;;;;;;;;;778337;180;818434;-60
2023/09/04 12:51:39;;;;;;;6.63;3.80;;;;;;;;;;784603;179;918944;-62
2023/09/04 12:54:04;;;;;;;6.13;3.77;;;;;;;;;;775488;179;821045;-64
2023/09/04 12:56:32;;;;;;;9.63;3.80;;;;;;;;;;770365;177;919220;-59
2023/09/04 12:58:56;;;;;;;8.10;3.70;;;;;;;;;;768357;182;914788;-59
2023/09/04 13:01:22;;;;;;;6.97;3.50;;;;;;;;;;772086;180;919422;-63
2023/09/04 13:03:48;;;;;;;4.47;3.23;;;;;;;;;;774728;177;918526;-62
2023/09/04 13:06:14;;;;;;;7.03;4.10;;;;;;;;;;772322;180;816540;-60
2023/09/04 13:08:40;;;;;;;5.30;3.17;;;;;;;;;;777861;180;809588;-58
2023/09/04 13:11:05;;;;;;;6.70;4.10;;;;;;;;;;771644;179;914199;-59
2023/09/04 13:13:32;;;;;;;6.43;4.35;;;;;;;;;;761951;181;923520;-62
2023/09/04 13:15:57;;;;;;;7.10;4.30;;;;;;;;;;777060;180;916065;-61
2023/09/04 13:18:25;;;;;;;4.93;3.43;;;;;;;;;;769726;178;918719;-59
2023/09/04 13:20:49;;;;;;;6.37;3.70;;;;;;;;;;761164;181;918356;-64
2023/09/04 13:23:15;;;;;;;4.87;3.30;;;;;;;;;;777460;180;920805;-62
2023/09/04 13:25:41;;;;;;;5.10;3.83;;;;;;;;;;775790;178;887101;-62
2023/09/04 13:28:07;;;;;;;10.23;3.27;;;;;;;;;;773729;178;892936;-59
2023/09/04 13:30:32;;;;;;;4.80;3.57;;;;;;;;;;773429;181;919187;-60
2023/09/04 13:32:58;;;;;;;7.10;3.60;;;;;;;;;;766430;182;916416;-60
2023/09/04 13:35:24;;;;;;;7.93;3.53;;;;;;;;;;765623;180;917162;-58
2023/09/04 13:37:50;;;;;;;7.70;3.90;;;;;;;;;;773997;180;824483;-62
2023/09/04 13:40:16;;;;;;;5.63;3.60;;;;;;;;;;777147;180;915051;-63
2023/09/04 13:42:42;;;;;;;5.33;3.67;;;;;;;;;;762605;182;919594;-60
2023/09/04 13:45:08;;;;;;;7.33;4.30;;;;;;;;;;773174;181;918674;-58
2023/09/04 13:47:34;;;;;;;4.60;3.03;;;;;;;;;;775810;181;919160;-58
2023/09/04 13:49:59;;;;;;;6.97;4.17;;;;;;;;;;769654;177;919641;-58
2023/09/04 13:52:25;;;;;;;6.60;3.40;;;;;;;;;;770885;177;920063;-58
2023/09/04 13:54:55;;;;;;;7.18;2.90;;;;;;;;;;777724;180;820116;-62
2023/09/04 13:57:18;;;;;;;6.10;3.20;;;;;;;;;;764457;179;927310;-58
2023/09/04 13:59:44;;;;;;;12.32;2.83;;;;;;;;;;770302;179;812143;-59
2023/09/04 14:02:09;;;;;;;4.73;2.57;;;;;;;;;;773968;177;916147;-59
2023/09/04 14:04:35;;;;;;;5.53;3.33;;;;;;;;;;779619;177;873089;-62
2023/09/04 14:07:01;;;;;;;11.23;3.27;;;;;;;;;;771845;177;818711;-62
2023/09/04 14:09:27;;;;;;;5.53;2.90;;;;;;;;;;776419;178;883885;-64
2023/09/04 14:11:53;;;;;;;3.77;2.63;;;;;;;;;;778608;178;916937;-63
2023/09/04 14:14:20;;;;;;;4.87;3.27;;;;;;;;;;771620;180;918180;-58
2023/09/04 14:16:44;;;;;;;4.45;2.80;;;;;;;;;;766999;179;917532;-64
2023/09/04 14:19:13;;;;;;;6.00;3.23;;;;;;;;;;770019;181;917502;-63
2023/09/04 14:21:37;;;;;;;7.53;2.50;;;;;;;;;;774030;180;925390;-59